Terminal Aerodrome Forecast
Issued by NWS

Home | Current Version | Previous Version | Text Only | Print | Product List | Glossary On
Versions: 1 2 3 4 5 6 7 8 9 10 11 12 13 14 15 16 17 18
000
FTUS45 KGJT 250520
TAFDRO
TAF
KDRO 250520Z 2506/2606 24006KT P6SM SKC
     FM250800 03003KT P6SM SKC
     FM251500 13007KT P6SM FEW200
     FM251900 22010G20KT P6SM SCT200
     FM260100 22012KT P6SM SCT150=

USA.gov is the U.S. government's official web portal to all federal, state and local government web resources and services.